createdAt,value
2022-10-24T00:01:27.154Z,15.00
2022-10-24T00:03:54.732Z,15.00
2022-10-24T00:06:22.520Z,14.90
2022-10-24T00:08:50.357Z,15.00
2022-10-24T00:11:24.476Z,14.70
2022-10-24T00:13:52.450Z,14.60
2022-10-24T00:16:20.103Z,14.60
2022-10-24T00:18:48.017Z,15.70
2022-10-24T00:21:15.839Z,14.60
2022-10-24T00:23:43.341Z,14.60
2022-10-24T00:26:11.980Z,14.50
2022-10-24T00:28:41.566Z,14.60
2022-10-24T00:31:14.502Z,14.70
2022-10-24T00:33:42.860Z,14.60
2022-10-24T00:36:15.614Z,14.60
2022-10-24T00:38:45.576Z,14.60
2022-10-24T00:41:24.897Z,14.60
2022-10-24T00:44:26.216Z,14.50
2022-10-24T00:47:14.129Z,14.50
2022-10-24T00:49:53.147Z,14.50
2022-10-24T00:52:27.771Z,14.50
2022-10-24T00:54:57.447Z,14.50
2022-10-24T00:57:33.790Z,14.40
2022-10-24T01:00:08.571Z,14.40
2022-10-24T01:02:36.943Z,14.40
2022-10-24T01:05:06.399Z,14.40
2022-10-24T01:08:00.465Z,14.50
2022-10-24T01:10:42.961Z,15.30
2022-10-24T01:13:45.578Z,14.50
2022-10-24T01:16:24.333Z,14.60
2022-10-24T01:19:15.009Z,14.60
2022-10-24T01:22:08.158Z,14.60
2022-10-24T01:24:59.303Z,14.60
2022-10-24T01:27:51.174Z,14.70
2022-10-24T01:30:19.558Z,14.60
2022-10-24T01:33:11.082Z,14.60
2022-10-24T01:35:54.686Z,14.60
2022-10-24T01:38:28.457Z,14.50
2022-10-24T01:41:06.101Z,14.60
2022-10-24T01:43:44.984Z,14.60
2022-10-24T01:46:16.874Z,14.60
2022-10-24T01:48:47.489Z,14.70
2022-10-24T01:51:17.692Z,14.60
2022-10-24T01:53:46.746Z,14.70
2022-10-24T01:56:14.472Z,14.70
2022-10-24T01:58:42.087Z,14.70
2022-10-24T02:01:15.350Z,14.70
2022-10-24T02:03:50.644Z,14.70
2022-10-24T02:06:40.034Z,14.70
2022-10-24T02:09:11.966Z,14.70
2022-10-24T02:11:40.880Z,14.60
2022-10-24T02:14:18.142Z,14.70
2022-10-24T02:16:46.261Z,14.80
2022-10-24T02:19:14.781Z,14.60
2022-10-24T02:22:09.263Z,14.60
2022-10-24T02:24:50.428Z,14.60
2022-10-24T02:27:27.503Z,14.60
2022-10-24T02:30:05.496Z,14.60
2022-10-24T02:32:45.127Z,14.60
2022-10-24T02:35:15.129Z,14.60
2022-10-24T02:37:54.376Z,15.20
2022-10-24T02:40:23.131Z,14.60
2022-10-24T02:42:55.123Z,14.50
2022-10-24T02:45:24.209Z,14.50
2022-10-24T02:47:57.750Z,14.90
2022-10-24T02:50:26.277Z,14.40
2022-10-24T02:52:53.736Z,14.40
2022-10-24T02:55:21.652Z,14.40
2022-10-24T02:57:49.068Z,14.40
2022-10-24T03:00:18.609Z,14.30
2022-10-24T03:02:46.883Z,14.30
2022-10-24T03:05:14.616Z,14.30
2022-10-24T03:07:42.026Z,14.30
2022-10-24T03:12:37.406Z,14.20
2022-10-24T03:15:06.048Z,14.60
2022-10-24T03:17:33.533Z,14.20
2022-10-24T03:20:00.944Z,14.20
2022-10-24T03:22:30.614Z,14.20
2022-10-24T03:25:02.058Z,14.20
2022-10-24T03:27:30.332Z,14.20
2022-10-24T03:29:57.827Z,14.20
2022-10-24T03:34:57.618Z,14.20
2022-10-24T03:37:25.053Z,14.20
2022-10-24T03:39:52.736Z,14.20
2022-10-24T03:42:20.436Z,14.10
2022-10-24T03:44:47.898Z,14.20
2022-10-24T03:47:15.795Z,14.20
2022-10-24T03:49:43.231Z,14.20
2022-10-24T03:52:11.183Z,14.10
2022-10-24T03:54:39.666Z,14.20
2022-10-24T03:57:09.908Z,14.10
2022-10-24T03:59:37.979Z,14.10
2022-10-24T04:02:06.230Z,14.10
2022-10-24T04:04:33.766Z,14.10
2022-10-24T04:07:01.200Z,14.10
2022-10-24T04:11:56.437Z,14.00
2022-10-24T04:14:23.929Z,14.00
2022-10-24T04:16:51.435Z,14.00
2022-10-24T04:19:19.089Z,14.00
2022-10-24T04:21:47.999Z,14.10
2022-10-24T04:24:15.930Z,13.90
2022-10-24T04:26:43.651Z,13.90
2022-10-24T04:29:11.696Z,13.80
2022-10-24T04:31:39.214Z,13.80
2022-10-24T04:34:06.894Z,13.80
2022-10-24T04:36:34.950Z,13.70
2022-10-24T04:39:03.062Z,13.80
2022-10-24T04:41:30.613Z,13.80
2022-10-24T04:43:58.048Z,13.80
2022-10-24T04:46:25.594Z,13.70
2022-10-24T04:48:53.626Z,13.70
2022-10-24T04:51:22.491Z,13.70
2022-10-24T04:53:51.423Z,13.80
2022-10-24T04:56:19.501Z,13.70
2022-10-24T04:58:47.189Z,13.70
2022-10-24T05:01:14.744Z,13.70
2022-10-24T05:03:42.385Z,13.60
2022-10-24T05:06:10.079Z,13.70
2022-10-24T05:08:37.672Z,13.50
2022-10-24T05:11:05.382Z,13.40
2022-10-24T05:13:35.835Z,12.50
2022-10-24T05:16:05.942Z,13.40
2022-10-24T05:18:33.364Z,13.40
2022-10-24T05:21:01.577Z,13.40
2022-10-24T05:23:29.187Z,13.40
2022-10-24T05:25:56.914Z,15.20
2022-10-24T05:28:24.639Z,13.30
2022-10-24T05:30:52.274Z,13.50
2022-10-24T05:33:19.732Z,13.40
2022-10-24T05:35:47.114Z,13.60
2022-10-24T05:38:14.579Z,13.50
2022-10-24T05:40:42.226Z,13.50
2022-10-24T05:43:09.784Z,13.50
2022-10-24T05:45:37.324Z,13.50
2022-10-24T05:48:08.659Z,13.50
2022-10-24T05:50:36.400Z,13.50
2022-10-24T05:53:04.405Z,13.50
2022-10-24T05:55:32.115Z,13.50
2022-10-24T05:57:59.694Z,13.40
2022-10-24T06:00:27.399Z,13.50
2022-10-24T06:02:54.897Z,13.40
2022-10-24T06:05:22.581Z,13.40
2022-10-24T06:07:50.055Z,13.30
2022-10-24T06:10:17.565Z,13.30
2022-10-24T06:12:45.374Z,13.20
2022-10-24T06:15:13.330Z,13.20
2022-10-24T06:17:40.797Z,13.10
2022-10-24T06:20:08.981Z,13.00
2022-10-24T06:22:39.510Z,13.00
2022-10-24T06:25:07.363Z,13.00
2022-10-24T06:27:34.829Z,12.90
2022-10-24T06:30:02.603Z,12.90
2022-10-24T06:32:30.029Z,12.90
2022-10-24T06:34:57.572Z,12.80
2022-10-24T06:37:25.135Z,12.80
2022-10-24T06:39:52.525Z,12.70
2022-10-24T06:42:20.135Z,12.70
2022-10-24T06:44:47.691Z,12.70
2022-10-24T06:47:15.194Z,12.70
2022-10-24T06:49:43.088Z,12.70
2022-10-24T06:52:10.629Z,12.70
2022-10-24T06:54:39.110Z,12.60
2022-10-24T06:57:07.005Z,12.60
2022-10-24T06:59:34.457Z,12.70
2022-10-24T07:02:05.054Z,12.60
2022-10-24T07:04:33.592Z,12.60
2022-10-24T07:07:01.057Z,13.30
2022-10-24T07:09:29.044Z,12.70
2022-10-24T07:11:56.723Z,12.60
2022-10-24T07:14:25.851Z,12.70
2022-10-24T07:16:53.310Z,12.70
2022-10-24T07:19:20.726Z,12.70
2022-10-24T07:21:48.255Z,12.80
2022-10-24T07:24:15.749Z,12.90
2022-10-24T07:26:43.229Z,12.90
2022-10-24T07:29:10.759Z,12.80
2022-10-24T07:31:38.241Z,12.90
2022-10-24T07:34:07.899Z,12.90
2022-10-24T07:36:40.060Z,12.90
2022-10-24T07:39:11.405Z,12.90
2022-10-24T07:41:41.801Z,13.10
2022-10-24T07:44:10.359Z,13.00
2022-10-24T07:46:38.596Z,13.00
2022-10-24T07:49:06.094Z,14.50
2022-10-24T07:51:33.525Z,13.10
2022-10-24T07:54:00.936Z,13.00
2022-10-24T07:56:28.474Z,13.20
2022-10-24T07:58:56.765Z,13.20
2022-10-24T08:01:26.351Z,13.10
2022-10-24T08:03:54.762Z,13.20
2022-10-24T08:06:25.210Z,13.40
2022-10-24T08:08:52.718Z,13.50
2022-10-24T08:11:23.144Z,13.40
2022-10-24T08:13:52.157Z,13.40
2022-10-24T08:16:22.054Z,13.50
2022-10-24T08:18:51.321Z,13.50
2022-10-24T08:21:20.386Z,13.60
2022-10-24T08:23:50.018Z,13.60
2022-10-24T08:26:19.907Z,13.60
2022-10-24T08:28:48.076Z,13.70
2022-10-24T08:31:19.072Z,13.70
2022-10-24T08:33:47.737Z,13.80
2022-10-24T08:36:33.603Z,13.80
2022-10-24T08:39:02.157Z,13.90
2022-10-24T08:41:50.738Z,13.90
2022-10-24T08:44:26.622Z,13.90
2022-10-24T08:47:06.597Z,14.00
2022-10-24T08:49:44.122Z,14.00
2022-10-24T08:52:14.183Z,14.10
2022-10-24T08:54:44.579Z,14.20
2022-10-24T08:57:23.980Z,14.20
2022-10-24T08:59:54.655Z,14.30
2022-10-24T09:02:28.953Z,14.30
2022-10-24T09:05:10.649Z,14.30
2022-10-24T09:07:38.658Z,14.40
2022-10-24T09:10:16.836Z,14.50
2022-10-24T09:12:44.473Z,14.50
2022-10-24T09:15:22.470Z,13.80
2022-10-24T09:17:50.606Z,14.70
2022-10-24T09:20:23.468Z,14.70
2022-10-24T09:22:51.987Z,14.80
2022-10-24T09:25:23.180Z,14.80
2022-10-24T09:27:52.117Z,14.80
2022-10-24T09:30:28.551Z,14.90
2022-10-24T09:33:12.805Z,14.90
2022-10-24T09:35:40.727Z,14.90
2022-10-24T09:38:24.347Z,15.00
2022-10-24T09:40:54.471Z,15.00
2022-10-24T09:43:33.054Z,15.20
2022-10-24T09:46:09.154Z,15.20
2022-10-24T09:48:47.652Z,15.30
2022-10-24T09:51:29.164Z,15.30
2022-10-24T09:54:26.936Z,15.40
2022-10-24T09:57:13.213Z,15.40
2022-10-24T09:59:50.355Z,15.50
2022-10-24T10:02:24.649Z,15.50
2022-10-24T10:05:04.725Z,15.50
2022-10-24T10:07:41.720Z,15.50
2022-10-24T10:10:18.523Z,15.50
2022-10-24T10:13:15.382Z,15.60
2022-10-24T10:15:58.993Z,15.60
2022-10-24T10:18:37.638Z,15.70
2022-10-24T10:21:18.563Z,15.70
2022-10-24T10:23:53.828Z,15.80
2022-10-24T10:26:30.310Z,15.80
2022-10-24T10:29:06.761Z,15.90
2022-10-24T10:31:41.783Z,16.00
2022-10-24T10:34:25.611Z,16.10
2022-10-24T10:37:12.546Z,16.10
2022-10-24T10:39:58.644Z,16.20
2022-10-24T10:42:45.821Z,16.20
2022-10-24T10:45:30.822Z,16.40
2022-10-24T10:48:19.654Z,16.40
2022-10-24T10:50:56.439Z,16.30
2022-10-24T10:53:39.319Z,16.30
2022-10-24T10:56:06.777Z,16.30
2022-10-24T10:59:23.546Z,16.20
2022-10-24T11:02:10.002Z,16.30
2022-10-24T11:04:58.812Z,16.30
2022-10-24T11:07:50.816Z,16.40
2022-10-24T11:10:23.112Z,16.50
2022-10-24T11:12:51.425Z,16.50
2022-10-24T11:15:27.999Z,16.60
2022-10-24T11:18:17.891Z,16.60
2022-10-24T11:20:57.713Z,16.60
2022-10-24T11:23:30.643Z,16.60
2022-10-24T11:26:02.918Z,16.60
2022-10-24T11:28:59.139Z,16.70
2022-10-24T11:31:28.703Z,16.80
2022-10-24T11:34:05.970Z,16.90
2022-10-24T11:37:03.515Z,17.00
2022-10-24T11:39:36.584Z,17.20
2022-10-24T11:42:25.911Z,17.40
2022-10-24T11:45:14.011Z,17.50
2022-10-24T11:47:57.035Z,17.70
2022-10-24T11:50:27.449Z,17.80
2022-10-24T11:53:13.759Z,18.00
2022-10-24T11:55:47.318Z,18.10
2022-10-24T11:58:19.732Z,18.40
2022-10-24T12:00:50.139Z,18.30
2022-10-24T12:03:55.564Z,18.40
2022-10-24T12:06:52.909Z,18.40
2022-10-24T12:09:33.565Z,18.40
2022-10-24T12:12:39.888Z,18.30
2022-10-24T12:15:48.122Z,18.30
2022-10-24T12:18:32.578Z,18.20
2022-10-24T12:21:07.953Z,18.20
2022-10-24T12:23:36.305Z,18.20
2022-10-24T12:26:18.539Z,18.20
2022-10-24T12:28:57.672Z,18.20
2022-10-24T12:31:43.353Z,18.30
2022-10-24T12:34:17.112Z,18.20
2022-10-24T12:37:09.927Z,18.10
2022-10-24T12:39:58.682Z,18.00
2022-10-24T12:42:26.278Z,17.90
2022-10-24T12:45:00.001Z,17.80
2022-10-24T12:47:49.605Z,17.80
2022-10-24T12:50:23.319Z,17.80
2022-10-24T12:53:03.948Z,17.90
2022-10-24T12:55:51.829Z,17.90
2022-10-24T12:58:29.827Z,18.00
2022-10-24T13:01:03.854Z,18.10
2022-10-24T13:03:40.560Z,18.10
2022-10-24T13:06:18.210Z,18.20
2022-10-24T13:09:12.260Z,18.30
2022-10-24T13:12:04.491Z,18.40
2022-10-24T13:15:03.359Z,18.40
2022-10-24T13:17:50.305Z,18.50
2022-10-24T13:20:27.393Z,18.50
2022-10-24T13:23:04.116Z,18.50
2022-10-24T13:25:34.596Z,18.50
2022-10-24T13:28:19.607Z,18.60
2022-10-24T13:30:49.733Z,18.70
2022-10-24T13:33:40.565Z,18.80
2022-10-24T13:36:26.983Z,19.20
2022-10-24T13:38:59.067Z,19.50
2022-10-24T13:41:50.426Z,20.00
2022-10-24T13:44:46.701Z,20.10
2022-10-24T13:50:02.763Z,20.60
2022-10-24T13:52:38.655Z,20.90
2022-10-24T13:55:12.253Z,21.10
2022-10-24T13:58:22.327Z,21.20
2022-10-24T14:01:03.117Z,21.20
2022-10-24T14:03:32.858Z,21.00
2022-10-24T14:06:03.686Z,20.80
2022-10-24T14:08:32.710Z,20.70
2022-10-24T14:11:08.757Z,20.80
2022-10-24T14:13:48.157Z,20.90
2022-10-24T14:16:16.603Z,21.10
2022-10-24T14:18:44.494Z,21.20
2022-10-24T14:21:22.672Z,21.10
2022-10-24T14:23:57.255Z,20.80
2022-10-24T14:26:25.337Z,20.80
2022-10-24T14:28:59.945Z,21.00
2022-10-24T14:31:35.730Z,21.20
2022-10-24T14:34:06.621Z,21.30
2022-10-24T14:36:37.801Z,21.30
2022-10-24T14:39:05.643Z,21.30
2022-10-24T14:41:39.171Z,21.40
2022-10-24T14:44:08.314Z,21.50
2022-10-24T14:46:43.945Z,21.60
2022-10-24T14:49:26.363Z,21.80
2022-10-24T14:52:10.389Z,21.70
2022-10-24T14:54:39.299Z,21.70
2022-10-24T14:57:18.327Z,21.80
2022-10-24T14:59:47.855Z,21.90
2022-10-24T15:02:36.469Z,21.80
2022-10-24T15:05:14.186Z,21.40
2022-10-24T15:07:57.251Z,21.20
2022-10-24T15:10:39.071Z,21.30
2022-10-24T15:13:14.678Z,21.10
2022-10-24T15:15:47.965Z,20.90
2022-10-24T15:18:41.292Z,20.80
2022-10-24T15:21:16.055Z,20.80
2022-10-24T15:23:58.203Z,20.80
2022-10-24T15:26:40.610Z,20.80
2022-10-24T15:29:14.724Z,20.90
2022-10-24T15:31:44.850Z,20.80
2022-10-24T15:34:17.144Z,20.50
2022-10-24T15:36:47.608Z,19.90
2022-10-24T15:39:18.402Z,19.40
2022-10-24T15:41:46.290Z,18.90
2022-10-24T15:44:20.923Z,18.50
2022-10-24T15:46:49.350Z,18.20
2022-10-24T15:49:17.170Z,17.90
2022-10-24T15:51:49.923Z,17.70
2022-10-24T15:54:21.908Z,17.50
2022-10-24T15:56:50.253Z,17.30
2022-10-24T15:59:20.025Z,17.10
2022-10-24T16:02:00.401Z,16.90
2022-10-24T16:04:28.736Z,16.80
2022-10-24T16:06:56.300Z,16.70
2022-10-24T16:09:31.083Z,16.60
2022-10-24T16:11:58.896Z,16.60
2022-10-24T16:14:26.492Z,16.50
2022-10-24T16:16:56.921Z,16.40
2022-10-24T16:19:27.209Z,16.40
2022-10-24T16:21:58.993Z,16.30
2022-10-24T16:24:28.032Z,16.30
2022-10-24T16:26:55.747Z,16.30
2022-10-24T16:29:23.224Z,16.30
2022-10-24T16:31:50.979Z,16.30
2022-10-24T16:34:19.644Z,16.30
2022-10-24T16:39:16.323Z,16.20
2022-10-24T16:41:46.444Z,16.20
2022-10-24T16:44:14.760Z,16.10
2022-10-24T16:46:42.259Z,16.10
2022-10-24T16:49:12.918Z,16.00
2022-10-24T16:51:44.011Z,16.00
2022-10-24T16:54:12.180Z,15.90
2022-10-24T16:56:39.618Z,15.90
2022-10-24T16:59:10.300Z,15.80
2022-10-24T17:01:40.722Z,15.60
2022-10-24T17:04:08.709Z,15.70
2022-10-24T17:06:36.586Z,15.60
2022-10-24T17:09:04.077Z,15.60
2022-10-24T17:11:44.864Z,15.50
2022-10-24T17:14:16.186Z,15.50
2022-10-24T17:16:44.163Z,15.40
2022-10-24T17:19:16.740Z,15.30
2022-10-24T17:21:48.269Z,15.30
2022-10-24T17:24:19.848Z,15.20
2022-10-24T17:26:48.046Z,15.20
2022-10-24T17:29:28.485Z,15.10
2022-10-24T17:31:56.653Z,15.10
2022-10-24T17:34:24.790Z,15.00
2022-10-24T17:37:20.403Z,15.00
2022-10-24T17:39:56.506Z,14.90
2022-10-24T17:42:24.202Z,14.90
2022-10-24T17:47:24.206Z,14.80
2022-10-24T17:49:51.659Z,14.90
2022-10-24T17:52:22.834Z,14.90
2022-10-24T17:54:50.922Z,14.80
2022-10-24T17:57:18.417Z,14.90
2022-10-24T17:59:45.891Z,14.90
2022-10-24T18:02:14.017Z,14.90
2022-10-24T18:04:44.545Z,14.90
2022-10-24T18:07:12.417Z,14.90
2022-10-24T18:09:40.241Z,14.90
2022-10-24T18:12:07.800Z,14.90
2022-10-24T18:14:37.412Z,14.90
2022-10-24T18:17:04.914Z,14.90
2022-10-24T18:19:32.508Z,14.90
2022-10-24T18:22:00.388Z,14.80
2022-10-24T18:24:27.888Z,14.80
2022-10-24T18:26:55.369Z,14.80
2022-10-24T18:29:23.966Z,14.70
2022-10-24T18:31:51.616Z,14.70
2022-10-24T18:34:19.199Z,14.70
2022-10-24T18:36:46.629Z,14.70
2022-10-24T18:39:14.251Z,14.70
2022-10-24T18:41:48.979Z,14.70
2022-10-24T18:44:31.224Z,13.50
2022-10-24T18:47:01.511Z,14.60
2022-10-24T18:49:30.031Z,14.50
2022-10-24T18:52:10.174Z,14.50
2022-10-24T18:54:40.717Z,14.50
2022-10-24T18:57:16.876Z,14.40
2022-10-24T18:59:45.423Z,14.40
2022-10-24T19:02:31.982Z,14.40
2022-10-24T19:05:11.969Z,14.40
2022-10-24T19:07:39.888Z,14.40
2022-10-24T19:10:11.098Z,14.40
2022-10-24T19:12:38.672Z,14.40
2022-10-24T19:15:06.762Z,14.40
2022-10-24T19:17:34.454Z,14.40
2022-10-24T19:20:02.076Z,14.40
2022-10-24T19:22:30.246Z,14.40
2022-10-24T19:24:58.091Z,14.20
2022-10-24T19:27:26.332Z,14.40
2022-10-24T19:29:53.967Z,14.30
2022-10-24T19:32:21.588Z,14.40
2022-10-24T19:34:48.957Z,14.30
2022-10-24T19:37:16.485Z,14.30
2022-10-24T19:39:44.243Z,14.30
2022-10-24T19:42:11.774Z,14.30
2022-10-24T19:44:39.569Z,14.30
2022-10-24T19:47:07.251Z,14.20
2022-10-24T19:49:34.770Z,14.20
2022-10-24T19:52:02.190Z,14.20
2022-10-24T19:54:29.689Z,14.20
2022-10-24T19:56:57.170Z,14.20
2022-10-24T19:59:27.187Z,14.10
2022-10-24T20:01:54.846Z,14.10
2022-10-24T20:04:22.600Z,14.10
2022-10-24T20:06:50.226Z,14.20
2022-10-24T20:09:17.719Z,14.00
2022-10-24T20:11:45.285Z,14.00
2022-10-24T20:14:12.880Z,14.10
2022-10-24T20:16:42.139Z,14.00
2022-10-24T20:19:10.194Z,15.20
2022-10-24T20:24:06.307Z,14.00
2022-10-24T20:26:34.297Z,14.00
2022-10-24T20:29:02.127Z,14.00
2022-10-24T20:31:43.339Z,14.00
2022-10-24T20:34:11.207Z,14.00
2022-10-24T20:36:41.773Z,14.00
2022-10-24T20:39:09.385Z,14.00
2022-10-24T20:41:38.037Z,14.10
2022-10-24T20:44:07.080Z,14.00
2022-10-24T20:46:36.007Z,14.00
2022-10-24T20:49:03.868Z,14.00
2022-10-24T20:51:31.651Z,14.00
2022-10-24T20:53:59.385Z,14.00
2022-10-24T20:56:27.150Z,14.00
2022-10-24T20:58:55.980Z,14.00
2022-10-24T21:01:26.402Z,14.00
2022-10-24T21:03:55.335Z,14.10
2022-10-24T21:06:31.842Z,14.00
2022-10-24T21:11:35.527Z,14.00
2022-10-24T21:14:06.564Z,14.00
2022-10-24T21:16:34.719Z,14.00
2022-10-24T21:19:03.025Z,14.00
2022-10-24T21:21:30.486Z,14.00
2022-10-24T21:24:02.617Z,14.00
2022-10-24T21:26:34.829Z,14.00
2022-10-24T21:29:20.675Z,14.00
2022-10-24T21:31:50.961Z,14.00
2022-10-24T21:34:19.069Z,13.90
2022-10-24T21:36:47.611Z,13.90
2022-10-24T21:39:16.541Z,14.00
2022-10-24T21:41:44.377Z,14.00
2022-10-24T21:44:12.401Z,14.00
2022-10-24T21:46:39.948Z,14.10
2022-10-24T21:49:07.401Z,13.90
2022-10-24T21:51:36.888Z,13.90
2022-10-24T21:54:15.260Z,14.00
2022-10-24T21:56:42.803Z,13.90
2022-10-24T21:59:15.862Z,13.90
2022-10-24T22:01:45.172Z,13.80
2022-10-24T22:04:13.655Z,13.80
2022-10-24T22:06:41.940Z,13.80
2022-10-24T22:09:13.447Z,13.80
2022-10-24T22:11:42.015Z,13.80
2022-10-24T22:14:11.597Z,13.80
2022-10-24T22:16:39.313Z,13.80
2022-10-24T22:19:07.166Z,13.70
2022-10-24T22:21:34.498Z,13.60
2022-10-24T22:26:38.325Z,13.70
2022-10-24T22:29:07.426Z,13.70
2022-10-24T22:31:35.732Z,13.70
2022-10-24T22:34:03.918Z,13.70
2022-10-24T22:36:56.278Z,13.70
2022-10-24T22:39:25.707Z,13.60
2022-10-24T22:41:53.721Z,13.70
2022-10-24T22:44:22.106Z,13.60
2022-10-24T22:47:11.650Z,13.60
2022-10-24T22:49:54.080Z,13.60
2022-10-24T22:52:22.046Z,13.60
2022-10-24T22:54:49.972Z,13.60
2022-10-24T22:57:17.758Z,13.60
2022-10-24T22:59:45.550Z,13.50
2022-10-24T23:02:24.850Z,13.50
2022-10-24T23:05:10.794Z,13.40
2022-10-24T23:08:01.360Z,13.40
2022-10-24T23:10:29.154Z,13.40
2022-10-24T23:12:57.259Z,13.30
2022-10-24T23:15:24.938Z,13.30
2022-10-24T23:20:35.448Z,13.30
2022-10-24T23:23:16.425Z,13.30
2022-10-24T23:25:52.396Z,13.20
2022-10-24T23:28:30.110Z,13.10
2022-10-24T23:30:58.356Z,13.10
2022-10-24T23:33:28.845Z,13.10
2022-10-24T23:36:00.358Z,13.10
2022-10-24T23:38:28.125Z,13.10
2022-10-24T23:40:56.065Z,13.00
2022-10-24T23:43:23.679Z,13.00
2022-10-24T23:46:11.916Z,13.00
2022-10-24T23:49:01.380Z,13.00
2022-10-24T23:51:43.145Z,13.00
2022-10-24T23:54:13.595Z,13.00
2022-10-24T23:56:41.025Z,13.00
2022-10-24T23:59:17.784Z,12.90
